createdAt,value
2018-08-06T00:00:55.989Z,929.17
2018-08-06T00:02:27.557Z,929.16
2018-08-06T00:03:59.276Z,929.17
2018-08-06T00:05:30.695Z,929.23
2018-08-06T00:07:02.265Z,929.27
2018-08-06T00:08:33.833Z,929.25
2018-08-06T00:10:05.402Z,929.23
2018-08-06T00:11:36.974Z,929.23
2018-08-06T00:13:08.540Z,929.23
2018-08-06T00:14:40.109Z,929.29
2018-08-06T00:16:11.928Z,929.22
2018-08-06T00:17:43.247Z,929.21
2018-08-06T00:19:14.816Z,929.26
2018-08-06T00:20:46.383Z,929.30
2018-08-06T00:22:17.953Z,929.31
2018-08-06T00:23:49.522Z,929.31
2018-08-06T00:25:21.090Z,929.33
2018-08-06T00:26:52.659Z,929.38
2018-08-06T00:28:24.231Z,929.39
2018-08-06T00:29:55.806Z,929.43
2018-08-06T00:31:27.366Z,929.41
2018-08-06T00:32:58.935Z,929.40
2018-08-06T00:34:30.854Z,929.37
2018-08-06T00:36:02.073Z,929.32
2018-08-06T00:37:33.641Z,929.33
2018-08-06T00:39:05.210Z,929.38
2018-08-06T00:40:36.779Z,929.31
2018-08-06T00:42:08.351Z,929.26
2018-08-06T00:43:39.917Z,929.15
2018-08-06T00:45:11.486Z,929.15
2018-08-06T00:46:43.054Z,929.22
2018-08-06T00:48:14.623Z,929.27
2018-08-06T00:49:46.192Z,929.31
2018-08-06T00:51:17.761Z,929.36
2018-08-06T00:52:49.430Z,929.42
2018-08-06T00:54:20.899Z,929.44
2018-08-06T00:55:52.467Z,929.40
2018-08-06T00:57:24.037Z,929.44
2018-08-06T00:58:55.607Z,929.43
2018-08-06T01:00:27.177Z,929.40
2018-08-06T01:01:58.746Z,929.37
2018-08-06T01:03:30.313Z,929.36
2018-08-06T01:05:01.881Z,929.39
2018-08-06T01:06:33.453Z,929.34
2018-08-06T01:08:05.019Z,929.25
2018-08-06T01:09:36.589Z,929.18
2018-08-06T01:11:08.257Z,929.22
2018-08-06T01:12:39.729Z,929.27
2018-08-06T01:14:11.296Z,929.30
2018-08-06T01:15:42.864Z,929.30
2018-08-06T01:17:14.433Z,929.29
2018-08-06T01:18:46.001Z,929.27
2018-08-06T01:20:17.570Z,929.15
2018-08-06T01:21:49.139Z,929.10
2018-08-06T01:23:20.708Z,929.19
2018-08-06T01:24:52.277Z,929.28
2018-08-06T01:26:23.849Z,929.40
2018-08-06T01:27:55.416Z,929.45
2018-08-06T01:29:27.084Z,929.50
2018-08-06T01:30:58.553Z,929.51
2018-08-06T01:32:30.129Z,929.49
2018-08-06T01:34:01.692Z,929.45
2018-08-06T01:35:33.511Z,929.48
2018-08-06T01:37:04.919Z,929.49
2018-08-06T01:38:36.402Z,929.56
2018-08-06T01:40:07.972Z,929.49
2018-08-06T01:41:39.536Z,929.48
2018-08-06T01:43:11.105Z,929.55
2018-08-06T01:44:42.674Z,929.58
2018-08-06T01:46:14.243Z,929.60
2018-08-06T01:47:45.913Z,929.58
2018-08-06T01:49:17.384Z,929.64
2018-08-06T01:50:48.957Z,929.63
2018-08-06T01:52:20.520Z,929.65
2018-08-06T01:53:52.089Z,929.67
2018-08-06T01:55:23.657Z,929.65
2018-08-06T01:56:55.227Z,929.65
2018-08-06T01:58:26.795Z,929.68
2018-08-06T01:59:58.368Z,929.67
2018-08-06T02:01:29.934Z,929.60
2018-08-06T02:03:01.504Z,929.58
2018-08-06T02:04:33.074Z,929.67
2018-08-06T02:06:04.891Z,929.72
2018-08-06T02:07:36.209Z,929.68
2018-08-06T02:09:07.778Z,929.61
2018-08-06T02:10:39.349Z,929.52
2018-08-06T02:12:10.916Z,929.45
2018-08-06T02:13:42.490Z,929.44
2018-08-06T02:15:14.058Z,929.43
2018-08-06T02:16:45.626Z,929.50
2018-08-06T02:18:17.195Z,929.55
2018-08-06T02:19:48.764Z,929.69
2018-08-06T02:21:20.339Z,929.74
2018-08-06T02:22:51.901Z,929.68
2018-08-06T02:24:23.570Z,929.61
2018-08-06T02:25:55.040Z,929.59
2018-08-06T02:27:26.609Z,929.55
2018-08-06T02:28:58.178Z,929.59
2018-08-06T02:30:29.747Z,929.60
2018-08-06T02:32:01.317Z,929.64
2018-08-06T02:33:32.886Z,929.72
2018-08-06T02:35:04.457Z,929.78
2018-08-06T02:36:36.174Z,929.76
2018-08-06T02:38:07.593Z,929.70
2018-08-06T02:39:39.164Z,929.71
2018-08-06T02:41:10.732Z,929.68
2018-08-06T02:42:42.403Z,929.61
2018-08-06T02:44:13.870Z,929.63
2018-08-06T02:45:45.439Z,929.59
2018-08-06T02:47:17.009Z,929.56
2018-08-06T02:48:48.578Z,929.54
2018-08-06T02:50:20.147Z,929.53
2018-08-06T02:51:51.716Z,929.52
2018-08-06T02:53:23.288Z,929.55
2018-08-06T02:54:54.860Z,929.55
2018-08-06T02:56:26.423Z,929.59
2018-08-06T02:57:57.992Z,929.56
2018-08-06T02:59:29.561Z,929.49
2018-08-06T03:01:01.231Z,929.44
2018-08-06T03:02:32.700Z,929.55
2018-08-06T03:04:04.269Z,929.67
2018-08-06T03:05:35.837Z,929.73
2018-08-06T03:07:07.657Z,929.68
2018-08-06T03:08:38.975Z,929.61
2018-08-06T03:10:10.574Z,929.65
2018-08-06T03:11:42.116Z,929.68
2018-08-06T03:13:13.784Z,929.68
2018-08-06T03:14:45.251Z,929.70
2018-08-06T03:16:16.820Z,929.65
2018-08-06T03:17:48.389Z,929.65
2018-08-06T03:19:20.062Z,929.61
2018-08-06T03:20:51.576Z,929.53
2018-08-06T03:22:23.096Z,929.44
2018-08-06T03:23:54.665Z,929.43
2018-08-06T03:25:26.235Z,929.33
2018-08-06T03:26:57.803Z,929.27
2018-08-06T03:28:29.372Z,929.20
2018-08-06T03:30:00.945Z,929.15
2018-08-06T03:31:32.511Z,929.13
2018-08-06T03:33:04.079Z,929.10
2018-08-06T03:34:35.648Z,929.10
2018-08-06T03:36:07.217Z,929.06
2018-08-06T03:37:39.136Z,929.01
2018-08-06T03:39:10.354Z,928.96
2018-08-06T03:40:41.924Z,929.12
2018-08-06T03:42:13.492Z,929.30
2018-08-06T03:43:45.161Z,929.45
2018-08-06T03:45:16.629Z,929.59
2018-08-06T03:46:48.198Z,929.65
2018-08-06T03:48:19.767Z,929.59
2018-08-06T03:49:51.436Z,929.58
2018-08-06T03:51:22.904Z,929.60
2018-08-06T03:52:54.526Z,929.64
2018-08-06T03:54:26.042Z,929.71
2018-08-06T03:55:57.711Z,929.77
2018-08-06T03:57:29.179Z,929.87
2018-08-06T03:59:00.748Z,929.84
2018-08-06T04:00:32.317Z,929.74
2018-08-06T04:02:03.885Z,929.63
2018-08-06T04:03:35.453Z,929.68
2018-08-06T04:05:07.024Z,929.79
2018-08-06T04:06:38.591Z,929.79
2018-08-06T04:08:10.310Z,929.81
2018-08-06T04:09:41.728Z,929.76
2018-08-06T04:11:13.297Z,929.72
2018-08-06T04:12:44.866Z,929.58
2018-08-06T04:14:16.535Z,929.54
2018-08-06T04:15:48.003Z,929.54
2018-08-06T04:17:19.572Z,929.55
2018-08-06T04:18:51.141Z,929.49
2018-08-06T04:20:22.862Z,929.39
2018-08-06T04:21:54.282Z,929.21
2018-08-06T04:23:25.848Z,929.08
2018-08-06T04:24:57.416Z,928.97
2018-08-06T04:26:28.984Z,928.96
2018-08-06T04:28:00.557Z,929.04
2018-08-06T04:29:32.121Z,928.99
2018-08-06T04:31:03.693Z,929.02
2018-08-06T04:32:35.358Z,929.11
2018-08-06T04:34:06.831Z,929.12
2018-08-06T04:35:38.395Z,929.04
2018-08-06T04:37:09.964Z,929.03
2018-08-06T04:38:41.783Z,928.96
2018-08-06T04:40:13.104Z,928.87
2018-08-06T04:41:44.669Z,928.87
2018-08-06T04:43:16.237Z,928.86
2018-08-06T04:44:47.905Z,928.94
2018-08-06T04:46:19.373Z,928.93
2018-08-06T04:47:50.941Z,928.87
2018-08-06T04:49:22.510Z,928.79
2018-08-06T04:50:54.281Z,928.76
2018-08-06T04:52:25.648Z,928.75
2018-08-06T04:53:57.215Z,928.73
2018-08-06T04:55:28.783Z,928.79
2018-08-06T04:57:00.351Z,928.78
2018-08-06T04:58:31.919Z,928.66
2018-08-06T05:00:03.488Z,928.50
2018-08-06T05:01:35.056Z,928.33
2018-08-06T05:03:06.624Z,928.30
2018-08-06T05:04:38.193Z,928.28
2018-08-06T05:06:09.761Z,928.27
2018-08-06T05:07:41.331Z,928.31
2018-08-06T05:09:13.197Z,928.24
2018-08-06T05:10:44.465Z,928.21
2018-08-06T05:12:16.033Z,928.23
2018-08-06T05:13:47.602Z,928.11
2018-08-06T05:15:19.270Z,928.21
2018-08-06T05:16:50.738Z,927.99
2018-08-06T05:18:22.306Z,927.88
2018-08-06T05:19:53.874Z,927.94
2018-08-06T05:21:25.543Z,928.10
2018-08-06T05:22:57.011Z,928.26
2018-08-06T05:24:28.579Z,928.31
2018-08-06T05:26:00.148Z,928.33
2018-08-06T05:27:32.219Z,928.39
2018-08-06T05:29:03.285Z,928.43
2018-08-06T05:30:34.857Z,928.51
2018-08-06T05:32:06.420Z,928.56
2018-08-06T05:33:37.993Z,928.63
2018-08-06T05:35:09.557Z,928.62
2018-08-06T05:36:41.125Z,928.66
2018-08-06T05:38:12.694Z,928.65
2018-08-06T05:39:44.414Z,928.62
2018-08-06T05:41:15.836Z,928.55
2018-08-06T05:42:47.399Z,928.50
2018-08-06T05:44:18.967Z,928.56
2018-08-06T05:45:50.787Z,928.57
2018-08-06T05:47:22.105Z,928.53
2018-08-06T05:48:53.674Z,928.47
2018-08-06T05:50:25.242Z,928.53
2018-08-06T05:51:56.910Z,928.64
2018-08-06T05:53:28.378Z,928.72
2018-08-06T05:54:59.950Z,928.72
2018-08-06T05:56:31.516Z,928.69
2018-08-06T05:58:03.084Z,928.62
2018-08-06T05:59:34.652Z,928.59
2018-08-06T06:01:06.221Z,928.72
2018-08-06T06:02:37.789Z,928.71
2018-08-06T06:04:09.461Z,928.72
2018-08-06T06:05:40.926Z,928.76
2018-08-06T06:07:12.495Z,928.83
2018-08-06T06:08:44.063Z,928.86
2018-08-06T06:10:15.886Z,928.90
2018-08-06T06:11:47.205Z,928.82
2018-08-06T06:13:18.768Z,928.82
2018-08-06T06:14:50.340Z,928.76
2018-08-06T06:16:22.006Z,928.75
2018-08-06T06:17:53.475Z,928.76
2018-08-06T06:19:25.044Z,928.67
2018-08-06T06:20:56.613Z,928.62
2018-08-06T06:22:28.432Z,928.53
2018-08-06T06:23:59.753Z,928.50
2018-08-06T06:25:31.318Z,928.46
2018-08-06T06:27:02.890Z,928.39
2018-08-06T06:28:34.481Z,928.31
2018-08-06T06:30:06.028Z,928.28
2018-08-06T06:31:37.622Z,928.25
2018-08-06T06:33:09.163Z,928.30
2018-08-06T06:34:40.811Z,928.27
2018-08-06T06:36:12.299Z,928.26
2018-08-06T06:37:43.875Z,928.26
2018-08-06T06:39:15.436Z,928.31
2018-08-06T06:40:47.356Z,928.36
2018-08-06T06:42:18.573Z,928.29
2018-08-06T06:43:50.148Z,928.18
2018-08-06T06:45:21.710Z,928.09
2018-08-06T06:46:53.479Z,928.09
2018-08-06T06:48:24.853Z,928.05
2018-08-06T06:49:56.415Z,928.07
2018-08-06T06:51:27.984Z,928.02
2018-08-06T06:52:59.702Z,928.05
2018-08-06T06:54:31.205Z,928.06
2018-08-06T06:56:02.688Z,927.99
2018-08-06T06:57:34.257Z,927.98
2018-08-06T06:59:06.175Z,927.96
2018-08-06T07:00:37.393Z,927.95
2018-08-06T07:02:08.961Z,927.96
2018-08-06T07:03:40.530Z,928.01
2018-08-06T07:05:12.099Z,928.04
2018-08-06T07:06:43.667Z,928.08
2018-08-06T07:08:15.235Z,928.04
2018-08-06T07:09:46.803Z,928.00
2018-08-06T07:11:18.525Z,928.02
2018-08-06T07:12:49.940Z,928.02
2018-08-06T07:14:21.509Z,928.10
2018-08-06T07:15:53.077Z,928.11
2018-08-06T07:17:24.745Z,928.20
2018-08-06T07:18:56.215Z,928.14
2018-08-06T07:20:27.786Z,928.10
2018-08-06T07:21:59.349Z,928.14
2018-08-06T07:23:31.018Z,928.12
2018-08-06T07:25:02.488Z,928.12
2018-08-06T07:26:34.061Z,928.05
2018-08-06T07:28:05.622Z,928.06
2018-08-06T07:29:37.191Z,928.11
2018-08-06T07:31:08.760Z,928.18
2018-08-06T07:32:40.328Z,928.24
2018-08-06T07:34:11.897Z,928.32
2018-08-06T07:35:43.564Z,928.33
2018-08-06T07:37:15.033Z,928.33
2018-08-06T07:38:46.600Z,928.31
2018-08-06T07:40:18.170Z,928.33
2018-08-06T07:41:49.837Z,928.34
2018-08-06T07:43:21.306Z,928.38
2018-08-06T07:44:52.873Z,928.36
2018-08-06T07:46:24.442Z,928.38
2018-08-06T07:47:56.164Z,928.41
2018-08-06T07:49:27.602Z,928.33
2018-08-06T07:50:59.148Z,928.37
2018-08-06T07:52:30.716Z,928.54
2018-08-06T07:54:02.485Z,928.82
2018-08-06T07:55:33.854Z,929.07
2018-08-06T07:57:05.422Z,929.20
2018-08-06T07:58:36.991Z,929.47
2018-08-06T08:00:08.559Z,930.01
2018-08-06T08:01:40.128Z,930.40
2018-08-06T08:03:11.697Z,930.41
2018-08-06T08:04:43.267Z,930.41
2018-08-06T08:06:14.848Z,930.35
2018-08-06T08:07:46.402Z,930.12
2018-08-06T08:09:17.971Z,930.08
2018-08-06T08:10:49.539Z,930.12
2018-08-06T08:12:21.358Z,930.20
2018-08-06T08:13:52.677Z,930.04
2018-08-06T08:15:24.244Z,929.84
2018-08-06T08:16:55.812Z,929.73
2018-08-06T08:18:28.232Z,929.70
2018-08-06T08:19:59.034Z,929.60
2018-08-06T08:21:30.518Z,929.51
2018-08-06T08:23:02.084Z,929.42
2018-08-06T08:24:33.754Z,929.43
2018-08-06T08:26:05.220Z,929.41
2018-08-06T08:27:36.789Z,929.35
2018-08-06T08:29:08.357Z,929.41
2018-08-06T08:30:40.028Z,929.40
2018-08-06T08:32:11.493Z,929.41
2018-08-06T08:33:43.061Z,929.39
2018-08-06T08:35:14.630Z,929.40
2018-08-06T08:36:46.198Z,929.40
2018-08-06T08:38:17.768Z,929.58
2018-08-06T08:39:49.334Z,929.68
2018-08-06T08:41:20.902Z,929.79
2018-08-06T08:42:52.721Z,929.81
2018-08-06T08:44:24.039Z,929.81
2018-08-06T08:45:55.607Z,929.88
2018-08-06T08:47:27.175Z,929.96
2018-08-06T08:48:58.843Z,930.00
2018-08-06T08:50:30.313Z,930.02
2018-08-06T08:52:01.881Z,930.16
2018-08-06T08:53:33.448Z,930.32
2018-08-06T08:55:05.117Z,930.47
2018-08-06T08:56:36.585Z,930.64
2018-08-06T08:58:08.152Z,930.79
2018-08-06T09:01:11.289Z,930.94
2018-08-06T09:02:42.858Z,930.94
2018-08-06T09:04:14.426Z,930.92
2018-08-06T09:05:45.994Z,930.85
2018-08-06T09:07:17.711Z,930.69
2018-08-06T09:08:49.132Z,930.74
2018-08-06T09:10:20.698Z,930.80
2018-08-06T09:11:52.268Z,930.86
2018-08-06T09:13:23.836Z,930.89
2018-08-06T09:14:55.403Z,930.92
2018-08-06T09:16:26.974Z,931.03
2018-08-06T09:17:58.540Z,931.15
2018-08-06T09:19:30.108Z,931.22
2018-08-06T09:21:01.677Z,931.29
2018-08-06T09:22:33.249Z,931.27
2018-08-06T09:24:04.815Z,931.25
2018-08-06T09:25:36.584Z,931.17
2018-08-06T09:27:07.949Z,931.12
2018-08-06T09:28:39.519Z,931.08
2018-08-06T09:30:11.089Z,930.92
2018-08-06T09:31:42.655Z,930.88
2018-08-06T09:33:14.224Z,930.86
2018-08-06T09:34:45.792Z,930.73
2018-08-06T09:36:17.363Z,930.70
2018-08-06T09:37:48.930Z,930.57
2018-08-06T09:39:20.499Z,930.46
2018-08-06T09:40:52.069Z,930.35
2018-08-06T09:42:23.638Z,930.17
2018-08-06T09:43:55.302Z,929.97
2018-08-06T09:45:26.774Z,929.80
2018-08-06T09:46:58.339Z,929.58
2018-08-06T09:48:29.915Z,929.48
2018-08-06T09:50:01.477Z,929.35
2018-08-06T09:51:33.084Z,929.26
2018-08-06T09:53:04.613Z,929.36
2018-08-06T09:54:36.369Z,929.29
2018-08-06T09:56:07.749Z,929.40
2018-08-06T09:57:39.361Z,929.47
2018-08-06T09:59:11.412Z,929.61
2018-08-06T10:00:42.453Z,929.62
2018-08-06T10:02:14.122Z,929.54
2018-08-06T10:08:20.496Z,929.59
2018-08-06T10:09:51.863Z,929.61
2018-08-06T10:11:23.637Z,929.57
2018-08-06T10:12:54.998Z,929.61
2018-08-06T10:14:26.568Z,929.80
2018-08-06T10:15:58.133Z,929.88
2018-08-06T10:17:29.701Z,929.94
2018-08-06T10:19:01.372Z,929.94
2018-08-06T10:20:32.938Z,929.86
2018-08-06T10:22:04.407Z,929.73
2018-08-06T10:23:35.977Z,929.70
2018-08-06T10:25:07.545Z,929.73
2018-08-06T10:26:39.115Z,929.75
2018-08-06T10:28:10.679Z,929.67
2018-08-06T10:29:42.248Z,929.58
2018-08-06T10:31:13.816Z,929.47
2018-08-06T10:34:17.480Z,929.24
2018-08-06T10:35:48.521Z,929.29
2018-08-06T10:37:20.091Z,929.40
2018-08-06T10:38:51.862Z,929.58
2018-08-06T10:41:54.898Z,929.66
2018-08-06T10:43:26.407Z,929.69
2018-08-06T10:44:57.931Z,929.64
2018-08-06T10:48:01.596Z,929.71
2018-08-06T10:49:32.802Z,929.86
2018-08-06T10:51:04.206Z,929.93
2018-08-06T10:52:35.774Z,929.95
2018-08-06T10:54:08.048Z,929.94
2018-08-06T10:55:38.962Z,929.97
2018-08-06T10:57:10.481Z,929.94
2018-08-06T10:58:42.253Z,930.01
2018-08-06T11:00:13.720Z,930.05
2018-08-06T11:01:45.392Z,930.08
2018-08-06T11:03:16.758Z,930.12
2018-08-06T11:04:48.327Z,930.13
2018-08-06T11:06:19.895Z,930.17
2018-08-06T11:07:51.666Z,930.15
2018-08-06T11:10:54.628Z,930.15
2018-08-06T11:12:26.171Z,930.15
2018-08-06T11:13:58.278Z,930.16
2018-08-06T11:17:02.011Z,930.31
2018-08-06T11:18:32.548Z,930.35
2018-08-06T11:20:04.219Z,930.36
2018-08-06T11:21:35.889Z,930.37
2018-08-06T11:24:38.733Z,930.34
2018-08-06T11:26:10.296Z,930.50
2018-08-06T11:29:13.430Z,930.77
2018-08-06T11:33:48.238Z,930.69
2018-08-06T11:35:19.707Z,930.64
2018-08-06T11:36:51.324Z,930.65
2018-08-06T11:38:22.913Z,930.69
2018-08-06T11:39:54.498Z,930.79
2018-08-06T11:41:26.204Z,930.92
2018-08-06T11:42:57.604Z,930.99
2018-08-06T11:44:29.374Z,931.03
2018-08-06T11:46:01.109Z,931.20
2018-08-06T11:47:32.631Z,931.24
2018-08-06T11:49:03.928Z,931.21
2018-08-06T11:50:35.402Z,931.29
2018-08-06T11:53:40.044Z,931.38
2018-08-06T11:55:10.108Z,931.47
2018-08-06T11:58:13.772Z,931.58
2018-08-06T11:59:45.118Z,931.56
2018-08-06T12:01:16.585Z,931.50
2018-08-06T12:04:19.826Z,931.52
2018-08-06T12:05:51.119Z,931.53
2018-08-06T12:07:22.963Z,931.49
2018-08-06T12:08:54.235Z,931.55
2018-08-06T12:10:26.032Z,931.52
2018-08-06T12:11:57.467Z,931.56
2018-08-06T12:13:29.002Z,931.59
2018-08-06T12:15:00.580Z,931.61
2018-08-06T12:16:32.075Z,931.60
2018-08-06T12:18:03.643Z,931.62
2018-08-06T12:19:35.214Z,931.65
2018-08-06T12:24:11.115Z,931.51
2018-08-06T12:25:41.836Z,931.54
2018-08-06T12:27:13.621Z,931.69
2018-08-06T12:28:44.633Z,931.76
2018-08-06T12:30:16.509Z,931.71
2018-08-06T12:33:19.348Z,931.64
2018-08-06T12:34:50.916Z,931.58
2018-08-06T12:36:22.488Z,931.42
2018-08-06T12:37:54.361Z,931.34
2018-08-06T12:39:25.629Z,931.30
2018-08-06T12:42:28.969Z,931.22
2018-08-06T12:44:00.339Z,931.19
2018-08-06T12:45:31.915Z,931.15
2018-08-06T12:47:03.688Z,931.10
2018-08-06T12:48:35.687Z,931.18
2018-08-06T12:50:06.874Z,931.20
2018-08-06T12:51:38.203Z,931.15
2018-08-06T12:53:09.871Z,931.10
2018-08-06T12:54:41.340Z,931.03
2018-08-06T12:57:44.482Z,931.03
2018-08-06T12:59:16.052Z,931.02
2018-08-06T13:00:47.624Z,931.03
2018-08-06T13:02:19.243Z,931.01
2018-08-06T13:03:50.784Z,930.97
2018-08-06T13:05:22.334Z,930.90
2018-08-06T13:08:25.799Z,930.90
2018-08-06T13:09:57.253Z,930.93
2018-08-06T13:13:00.190Z,930.90
2018-08-06T13:14:31.761Z,930.82
2018-08-06T13:16:03.334Z,930.81
2018-08-06T13:17:35.442Z,930.82
2018-08-06T13:19:06.478Z,930.87
2018-08-06T13:20:38.576Z,930.89
2018-08-06T13:22:09.667Z,930.86
2018-08-06T13:23:41.194Z,930.92
2018-08-06T13:25:13.333Z,930.90
2018-08-06T13:26:44.439Z,930.89
2018-08-06T13:28:15.910Z,930.95
2018-08-06T13:29:47.787Z,930.86
2018-08-06T13:31:19.102Z,930.86
2018-08-06T13:32:50.638Z,930.75
2018-08-06T13:34:22.229Z,930.71
2018-08-06T13:35:54.043Z,930.73
2018-08-06T13:37:25.416Z,930.75
2018-08-06T13:38:56.926Z,930.76
2018-08-06T13:40:28.538Z,930.82
2018-08-06T13:42:00.069Z,930.82
2018-08-06T13:43:31.638Z,930.86
2018-08-06T13:45:03.606Z,930.78
2018-08-06T13:46:34.781Z,930.75
2018-08-06T13:48:06.484Z,930.84
2018-08-06T13:49:37.920Z,930.84
2018-08-06T13:52:41.066Z,930.88
2018-08-06T13:54:12.720Z,930.96
2018-08-06T13:55:44.415Z,931.00
2018-08-06T13:57:15.785Z,931.06
2018-08-06T13:58:47.358Z,931.03
2018-08-06T14:00:19.241Z,931.05
2018-08-06T14:01:50.708Z,931.10
2018-08-06T14:03:22.281Z,931.06
2018-08-06T14:04:53.747Z,931.01
2018-08-06T14:06:25.521Z,931.08
2018-08-06T14:07:56.993Z,931.22
2018-08-06T14:09:28.665Z,931.25
2018-08-06T14:11:00.020Z,931.35
2018-08-06T14:12:31.504Z,931.33
2018-08-06T14:14:03.077Z,931.39
2018-08-06T14:17:06.746Z,931.47
2018-08-06T14:18:37.790Z,931.54
2018-08-06T14:21:41.236Z,931.67
2018-08-06T14:23:12.607Z,931.57
2018-08-06T14:24:44.277Z,931.62
2018-08-06T14:26:15.650Z,931.61
2018-08-06T14:29:18.854Z,931.54
2018-08-06T14:30:50.411Z,931.61
2018-08-06T14:32:22.019Z,931.57
2018-08-06T14:33:53.502Z,931.54
2018-08-06T14:35:25.378Z,931.47
2018-08-06T14:36:56.641Z,931.41
2018-08-06T14:39:59.921Z,931.44
2018-08-06T14:41:31.456Z,931.39
2018-08-06T14:44:34.566Z,931.44
2018-08-06T14:46:06.064Z,931.38
2018-08-06T14:47:37.887Z,931.37
2018-08-06T14:49:09.206Z,931.45
2018-08-06T14:55:15.859Z,931.47
2018-08-06T14:56:47.586Z,931.50
2018-08-06T14:58:18.940Z,931.56
2018-08-06T15:01:21.868Z,931.50
2018-08-06T15:02:53.346Z,931.51
2018-08-06T15:05:56.485Z,931.55
2018-08-06T15:10:31.193Z,931.53
2018-08-06T15:12:02.808Z,931.53
2018-08-06T15:13:34.341Z,931.48
2018-08-06T15:15:05.906Z,931.38
2018-08-06T15:16:37.628Z,931.39
2018-08-06T15:18:09.353Z,931.35
2018-08-06T15:19:40.639Z,931.30
2018-08-06T15:21:12.397Z,931.25
2018-08-06T15:22:43.976Z,931.22
2018-08-06T15:24:15.335Z,931.19
2018-08-06T15:25:47.436Z,931.15
2018-08-06T15:27:19.010Z,931.10
2018-08-06T15:28:50.057Z,930.96
2018-08-06T15:30:21.643Z,930.94
2018-08-06T15:31:53.536Z,930.88
2018-08-06T15:33:24.969Z,930.80
2018-08-06T15:34:56.893Z,930.74
2018-08-06T15:37:59.988Z,930.70
2018-08-06T15:39:31.583Z,930.67
2018-08-06T15:41:02.638Z,930.67
2018-08-06T15:42:34.197Z,930.61
2018-08-06T15:44:05.770Z,930.55
2018-08-06T15:45:37.350Z,930.53
2018-08-06T15:47:09.112Z,930.40
2018-08-06T15:48:40.482Z,930.27
2018-08-06T15:50:12.056Z,930.34
2018-08-06T15:51:44.154Z,930.31
2018-08-06T15:53:15.398Z,930.36
2018-08-06T15:56:18.342Z,930.39
2018-08-06T15:59:21.929Z,930.29
2018-08-06T16:00:53.825Z,930.25
2018-08-06T16:02:24.627Z,930.17
2018-08-06T16:03:56.888Z,930.14
2018-08-06T16:05:27.971Z,930.12
2018-08-06T16:06:59.543Z,930.05
2018-08-06T16:08:30.910Z,929.98
2018-08-06T16:10:02.483Z,930.01
2018-08-06T16:11:34.154Z,929.92
2018-08-06T16:13:05.652Z,929.91
2018-08-06T16:16:08.839Z,929.92
2018-08-06T16:17:40.646Z,929.87
2018-08-06T16:22:15.047Z,929.97
2018-08-06T16:25:18.489Z,930.03
2018-08-06T16:26:49.945Z,930.10
2018-08-06T16:28:21.594Z,930.15
2018-08-06T16:29:52.944Z,930.10
2018-08-06T16:31:24.567Z,930.05
2018-08-06T16:32:56.238Z,930.03
2018-08-06T16:34:27.909Z,930.02
2018-08-06T16:37:30.885Z,930.00
2018-08-06T16:39:02.572Z,929.96
2018-08-06T16:43:37.077Z,929.95
2018-08-06T16:45:09.202Z,929.94
2018-08-06T16:46:40.209Z,929.95
2018-08-06T16:48:11.817Z,929.98
2018-08-06T16:49:43.547Z,930.00
2018-08-06T16:51:15.181Z,929.98
2018-08-06T16:52:46.945Z,929.96
2018-08-06T16:55:49.622Z,929.89
2018-08-06T16:57:21.361Z,929.85
2018-08-06T16:58:52.799Z,929.88
2018-08-06T17:00:24.303Z,929.88
2018-08-06T17:03:27.447Z,929.96
2018-08-06T17:04:59.012Z,930.02
2018-08-06T17:06:31.285Z,930.05
2018-08-06T17:08:02.154Z,930.04
2018-08-06T17:09:34.413Z,930.05
2018-08-06T17:11:05.291Z,929.99
2018-08-06T17:12:36.878Z,929.97
2018-08-06T17:14:08.434Z,929.94
2018-08-06T17:15:40.066Z,929.89
2018-08-06T17:17:11.602Z,929.82
2018-08-06T17:18:43.139Z,929.77
2018-08-06T17:20:14.866Z,929.77
2018-08-06T17:21:46.279Z,929.76
2018-08-06T17:23:17.849Z,929.76
2018-08-06T17:24:49.591Z,929.72
2018-08-06T17:26:20.987Z,929.67
2018-08-06T17:29:24.436Z,929.67
2018-08-06T17:33:59.094Z,929.68
2018-08-06T17:35:28.140Z,929.69
2018-08-06T17:36:59.612Z,929.69
2018-08-06T17:38:31.179Z,929.66
2018-08-06T17:40:02.748Z,929.68
2018-08-06T17:41:34.317Z,929.63
2018-08-06T17:43:05.887Z,929.60
2018-08-06T17:44:37.455Z,929.62
2018-08-06T17:46:09.024Z,929.60
2018-08-06T17:49:12.268Z,929.60
2018-08-06T17:50:43.743Z,929.59
2018-08-06T17:52:15.301Z,929.60
2018-08-06T17:53:46.872Z,929.54
2018-08-06T17:55:18.744Z,929.50
2018-08-06T17:56:50.032Z,929.48
2018-08-06T17:58:21.585Z,929.50
2018-08-06T18:01:26.249Z,929.52
2018-08-06T18:02:56.303Z,929.45
2018-08-06T18:04:28.059Z,929.44
2018-08-06T18:05:59.629Z,929.43
2018-08-06T18:07:31.095Z,929.40
2018-08-06T18:09:02.814Z,929.47
2018-08-06T18:10:34.149Z,929.50
2018-08-06T18:12:05.907Z,929.44
2018-08-06T18:13:37.265Z,929.48
2018-08-06T18:15:08.835Z,929.43
2018-08-06T18:16:40.607Z,929.38
2018-08-06T18:18:12.308Z,929.34
2018-08-06T18:21:15.112Z,929.45
2018-08-06T18:24:18.251Z,929.48
2018-08-06T18:25:49.822Z,929.42
2018-08-06T18:28:53.174Z,929.41
2018-08-06T18:30:24.855Z,929.46
2018-08-06T18:31:56.107Z,929.46
2018-08-06T18:33:27.673Z,929.48
2018-08-06T18:34:59.240Z,929.54
2018-08-06T18:36:30.809Z,929.58
2018-08-06T18:38:02.378Z,929.63
2018-08-06T18:39:34.007Z,929.66
2018-08-06T18:41:05.509Z,929.69
2018-08-06T18:42:37.080Z,929.63
2018-08-06T18:44:08.651Z,929.58
2018-08-06T18:45:41.357Z,929.56
2018-08-06T18:47:11.892Z,929.55
2018-08-06T18:48:43.367Z,929.50
2018-08-06T18:50:14.945Z,929.50
2018-08-06T18:53:18.068Z,929.44
2018-08-06T18:54:49.638Z,929.43
2018-08-06T18:56:21.207Z,929.34
2018-08-06T18:57:52.819Z,929.30
2018-08-06T18:59:24.517Z,929.22
2018-08-06T19:00:55.924Z,929.22
2018-08-06T19:02:27.687Z,929.25
2018-08-06T19:03:59.258Z,929.27
2018-08-06T19:05:31.250Z,929.29
2018-08-06T19:08:33.803Z,929.24
2018-08-06T19:10:05.332Z,929.20
2018-08-06T19:11:36.901Z,929.19
2018-08-06T19:14:40.242Z,929.30
2018-08-06T19:17:43.179Z,929.36
2018-08-06T19:19:15.284Z,929.38
2018-08-06T19:20:46.318Z,929.39
2018-08-06T19:22:17.889Z,929.39
2018-08-06T19:23:49.607Z,929.43
2018-08-06T19:25:21.032Z,929.51
2018-08-06T19:26:52.602Z,929.56
2018-08-06T19:28:24.167Z,929.56
2018-08-06T19:31:27.725Z,929.58
2018-08-06T19:32:59.082Z,929.59
2018-08-06T19:36:02.018Z,929.59
2018-08-06T19:37:33.585Z,929.61
2018-08-06T19:39:05.188Z,929.55
2018-08-06T19:40:36.725Z,929.49
2018-08-06T19:42:08.294Z,929.49
2018-08-06T19:43:39.966Z,929.50
2018-08-06T19:46:43.006Z,929.48
2018-08-06T19:49:46.144Z,929.49
2018-08-06T19:51:17.713Z,929.58
2018-08-06T19:52:49.283Z,929.63
2018-08-06T19:55:52.423Z,929.63
2018-08-06T19:57:24.069Z,929.62
2018-08-06T19:58:55.562Z,929.63
2018-08-06T20:00:27.131Z,929.74
2018-08-06T20:01:58.807Z,929.72
2018-08-06T20:03:30.296Z,929.76
2018-08-06T20:05:01.841Z,929.76
2018-08-06T20:06:33.410Z,929.76
2018-08-06T20:08:04.984Z,929.75
2018-08-06T20:09:36.548Z,929.71
2018-08-06T20:11:08.118Z,929.72
2018-08-06T20:12:39.686Z,929.66
2018-08-06T20:14:11.257Z,929.67
2018-08-06T20:15:42.826Z,929.67
2018-08-06T20:17:14.394Z,929.66
2018-08-06T20:18:45.963Z,929.71
2018-08-06T20:20:17.637Z,929.65
2018-08-06T20:21:49.105Z,929.62
2018-08-06T20:24:52.239Z,929.46
2018-08-06T20:26:24.059Z,929.44
2018-08-06T20:27:55.376Z,929.41
2018-08-06T20:29:26.945Z,929.39
2018-08-06T20:30:58.515Z,929.43
2018-08-06T20:32:30.084Z,929.52
2018-08-06T20:34:01.652Z,929.54
2018-08-06T20:35:33.398Z,929.55
2018-08-06T20:37:04.788Z,929.57
2018-08-06T20:38:36.457Z,929.58
2018-08-06T20:40:07.924Z,929.57
2018-08-06T20:41:39.494Z,929.56
2018-08-06T20:43:11.063Z,929.55